sensor_id;sensor_type;location;lat;lon;timestamp;P1;durP1;ratioP1;P2;durP2;ratioP2
38262;SDS011;24054;50.128;19.730;2022-11-20T00:00:20;25.67;;;18.15;;
38262;SDS011;24054;50.128;19.730;2022-11-20T00:02:47;28.58;;;18.23;;
38262;SDS011;24054;50.128;19.730;2022-11-20T00:05:14;25.88;;;19.13;;
38262;SDS011;24054;50.128;19.730;2022-11-20T00:07:42;25.08;;;18.73;;
38262;SDS011;24054;50.128;19.730;2022-11-20T00:10:09;26.00;;;18.17;;
38262;SDS011;24054;50.128;19.730;2022-11-20T00:12:36;25.05;;;18.27;;
38262;SDS011;24054;50.128;19.730;2022-11-20T00:15:04;25.25;;;18.05;;
38262;SDS011;24054;50.128;19.730;2022-11-20T00:17:32;25.70;;;18.95;;
38262;SDS011;24054;50.128;19.730;2022-11-20T00:20:01;26.55;;;19.35;;
38262;SDS011;24054;50.128;19.730;2022-11-20T00:22:29;24.80;;;18.15;;
38262;SDS011;24054;50.128;19.730;2022-11-20T00:24:56;25.50;;;18.25;;
38262;SDS011;24054;50.128;19.730;2022-11-20T00:27:23;25.80;;;18.85;;
38262;SDS011;24054;50.128;19.730;2022-11-20T00:29:50;26.52;;;18.67;;
38262;SDS011;24054;50.128;19.730;2022-11-20T00:32:18;29.05;;;20.27;;
38262;SDS011;24054;50.128;19.730;2022-11-20T00:34:45;27.88;;;19.33;;
38262;SDS011;24054;50.128;19.730;2022-11-20T00:37:12;25.75;;;20.35;;
38262;SDS011;24054;50.128;19.730;2022-11-20T00:39:39;29.25;;;19.60;;
38262;SDS011;24054;50.128;19.730;2022-11-20T00:42:06;27.58;;;20.02;;
38262;SDS011;24054;50.128;19.730;2022-11-20T00:44:33;27.15;;;19.70;;
38262;SDS011;24054;50.128;19.730;2022-11-20T00:47:00;28.17;;;19.48;;
38262;SDS011;24054;50.128;19.730;2022-11-20T00:49:28;27.23;;;20.67;;
38262;SDS011;24054;50.128;19.730;2022-11-20T00:51:55;29.55;;;21.65;;
38262;SDS011;24054;50.128;19.730;2022-11-20T00:54:22;29.30;;;21.38;;
38262;SDS011;24054;50.128;19.730;2022-11-20T00:56:49;30.65;;;20.77;;
38262;SDS011;24054;50.128;19.730;2022-11-20T00:59:18;30.50;;;21.35;;
38262;SDS011;24054;50.128;19.730;2022-11-20T01:01:45;30.23;;;21.42;;
38262;SDS011;24054;50.128;19.730;2022-11-20T01:04:12;29.98;;;20.95;;
38262;SDS011;24054;50.128;19.730;2022-11-20T01:06:41;33.28;;;23.20;;
38262;SDS011;24054;50.128;19.730;2022-11-20T01:09:09;31.75;;;21.80;;
38262;SDS011;24054;50.128;19.730;2022-11-20T01:11:38;31.80;;;22.00;;
38262;SDS011;24054;50.128;19.730;2022-11-20T01:14:07;32.03;;;23.70;;
38262;SDS011;24054;50.128;19.730;2022-11-20T01:16:38;30.85;;;23.70;;
38262;SDS011;24054;50.128;19.730;2022-11-20T01:19:09;32.72;;;23.15;;
38262;SDS011;24054;50.128;19.730;2022-11-20T01:21:37;32.65;;;23.13;;
38262;SDS011;24054;50.128;19.730;2022-11-20T01:26:35;32.60;;;23.30;;
38262;SDS011;24054;50.128;19.730;2022-11-20T01:29:04;32.72;;;23.20;;
38262;SDS011;24054;50.128;19.730;2022-11-20T01:31:32;31.80;;;23.83;;
38262;SDS011;24054;50.128;19.730;2022-11-20T01:34:02;34.55;;;25.17;;
38262;SDS011;24054;50.128;19.730;2022-11-20T01:36:32;36.20;;;23.30;;
38262;SDS011;24054;50.128;19.730;2022-11-20T01:39:00;31.23;;;24.05;;
38262;SDS011;24054;50.128;19.730;2022-11-20T01:41:31;31.50;;;23.63;;
38262;SDS011;24054;50.128;19.730;2022-11-20T01:44:18;32.67;;;22.70;;
38262;SDS011;24054;50.128;19.730;2022-11-20T01:46:49;32.78;;;23.23;;
38262;SDS011;24054;50.128;19.730;2022-11-20T01:49:25;34.13;;;24.27;;
38262;SDS011;24054;50.128;19.730;2022-11-20T01:52:04;35.47;;;25.08;;
38262;SDS011;24054;50.128;19.730;2022-11-20T01:54:34;30.60;;;22.80;;
38262;SDS011;24054;50.128;19.730;2022-11-20T01:57:06;35.20;;;24.98;;
38262;SDS011;24054;50.128;19.730;2022-11-20T01:59:36;36.00;;;25.00;;
38262;SDS011;24054;50.128;19.730;2022-11-20T02:02:10;37.13;;;25.60;;
38262;SDS011;24054;50.128;19.730;2022-11-20T02:04:37;36.92;;;25.73;;
38262;SDS011;24054;50.128;19.730;2022-11-20T02:07:04;34.33;;;25.23;;
38262;SDS011;24054;50.128;19.730;2022-11-20T02:09:31;36.67;;;25.73;;
38262;SDS011;24054;50.128;19.730;2022-11-20T02:11:59;36.60;;;27.20;;
38262;SDS011;24054;50.128;19.730;2022-11-20T02:14:28;34.83;;;25.30;;
38262;SDS011;24054;50.128;19.730;2022-11-20T02:16:54;36.42;;;26.88;;
38262;SDS011;24054;50.128;19.730;2022-11-20T02:19:22;37.50;;;26.17;;
38262;SDS011;24054;50.128;19.730;2022-11-20T02:21:55;37.42;;;25.73;;
38262;SDS011;24054;50.128;19.730;2022-11-20T02:24:27;37.63;;;25.98;;
38262;SDS011;24054;50.128;19.730;2022-11-20T02:26:56;38.63;;;26.00;;
38262;SDS011;24054;50.128;19.730;2022-11-20T02:29:26;37.08;;;26.80;;
38262;SDS011;24054;50.128;19.730;2022-11-20T02:31:58;34.90;;;26.48;;
38262;SDS011;24054;50.128;19.730;2022-11-20T02:34:28;38.20;;;25.13;;
38262;SDS011;24054;50.128;19.730;2022-11-20T02:36:55;38.28;;;26.50;;
38262;SDS011;24054;50.128;19.730;2022-11-20T02:39:24;36.78;;;25.65;;
38262;SDS011;24054;50.128;19.730;2022-11-20T02:41:55;38.53;;;25.55;;
38262;SDS011;24054;50.128;19.730;2022-11-20T02:44:23;36.28;;;27.13;;
38262;SDS011;24054;50.128;19.730;2022-11-20T02:46:50;38.63;;;27.48;;
38262;SDS011;24054;50.128;19.730;2022-11-20T02:49:17;38.40;;;26.48;;
38262;SDS011;24054;50.128;19.730;2022-11-20T02:51:44;38.53;;;27.80;;
38262;SDS011;24054;50.128;19.730;2022-11-20T02:54:11;40.63;;;27.08;;
38262;SDS011;24054;50.128;19.730;2022-11-20T02:56:38;36.25;;;25.58;;
38262;SDS011;24054;50.128;19.730;2022-11-20T02:59:06;38.17;;;27.05;;
38262;SDS011;24054;50.128;19.730;2022-11-20T03:01:34;39.40;;;27.17;;
38262;SDS011;24054;50.128;19.730;2022-11-20T03:04:01;39.92;;;27.58;;
38262;SDS011;24054;50.128;19.730;2022-11-20T03:06:28;36.05;;;26.23;;
38262;SDS011;24054;50.128;19.730;2022-11-20T03:08:55;38.97;;;27.42;;
38262;SDS011;24054;50.128;19.730;2022-11-20T03:11:22;37.17;;;27.10;;
38262;SDS011;24054;50.128;19.730;2022-11-20T03:13:49;39.20;;;27.48;;
38262;SDS011;24054;50.128;19.730;2022-11-20T03:16:18;36.80;;;27.55;;
38262;SDS011;24054;50.128;19.730;2022-11-20T03:18:46;38.70;;;27.55;;
38262;SDS011;24054;50.128;19.730;2022-11-20T03:21:13;39.03;;;27.58;;
38262;SDS011;24054;50.128;19.730;2022-11-20T03:23:41;40.20;;;28.00;;
38262;SDS011;24054;50.128;19.730;2022-11-20T03:26:12;37.58;;;27.98;;
38262;SDS011;24054;50.128;19.730;2022-11-20T03:28:40;37.83;;;27.63;;
38262;SDS011;24054;50.128;19.730;2022-11-20T03:31:08;39.92;;;27.52;;
38262;SDS011;24054;50.128;19.730;2022-11-20T03:33:38;42.95;;;29.42;;
38262;SDS011;24054;50.128;19.730;2022-11-20T03:36:06;40.85;;;28.67;;
38262;SDS011;24054;50.128;19.730;2022-11-20T03:41:01;37.17;;;26.73;;
38262;SDS011;24054;50.128;19.730;2022-11-20T03:43:30;44.70;;;29.42;;
38262;SDS011;24054;50.128;19.730;2022-11-20T03:45:58;39.95;;;28.05;;
38262;SDS011;24054;50.128;19.730;2022-11-20T03:48:25;41.40;;;28.38;;
38262;SDS011;24054;50.128;19.730;2022-11-20T03:50:53;43.35;;;28.60;;
38262;SDS011;24054;50.128;19.730;2022-11-20T03:53:33;40.42;;;28.25;;
38262;SDS011;24054;50.128;19.730;2022-11-20T03:56:00;39.17;;;27.70;;
38262;SDS011;24054;50.128;19.730;2022-11-20T03:58:27;40.35;;;28.42;;
38262;SDS011;24054;50.128;19.730;2022-11-20T04:00:53;40.45;;;28.08;;
38262;SDS011;24054;50.128;19.730;2022-11-20T04:03:20;43.17;;;28.98;;
38262;SDS011;24054;50.128;19.730;2022-11-20T04:05:48;40.65;;;28.42;;
38262;SDS011;24054;50.128;19.730;2022-11-20T04:08:16;43.90;;;28.95;;
38262;SDS011;24054;50.128;19.730;2022-11-20T04:10:43;42.80;;;31.20;;
38262;SDS011;24054;50.128;19.730;2022-11-20T04:13:10;39.90;;;29.23;;
38262;SDS011;24054;50.128;19.730;2022-11-20T04:15:37;43.15;;;29.20;;
38262;SDS011;24054;50.128;19.730;2022-11-20T04:18:04;39.30;;;29.05;;
38262;SDS011;24054;50.128;19.730;2022-11-20T04:20:31;40.17;;;28.45;;
38262;SDS011;24054;50.128;19.730;2022-11-20T04:22:58;40.58;;;28.77;;
38262;SDS011;24054;50.128;19.730;2022-11-20T04:25:26;41.15;;;28.60;;
38262;SDS011;24054;50.128;19.730;2022-11-20T04:27:54;41.80;;;27.90;;
38262;SDS011;24054;50.128;19.730;2022-11-20T04:30:21;40.50;;;28.15;;
38262;SDS011;24054;50.128;19.730;2022-11-20T04:32:48;38.55;;;28.10;;
38262;SDS011;24054;50.128;19.730;2022-11-20T04:35:15;41.33;;;29.80;;
38262;SDS011;24054;50.128;19.730;2022-11-20T04:37:42;39.45;;;29.30;;
38262;SDS011;24054;50.128;19.730;2022-11-20T04:40:09;40.55;;;28.70;;
38262;SDS011;24054;50.128;19.730;2022-11-20T04:42:38;40.67;;;28.70;;
38262;SDS011;24054;50.128;19.730;2022-11-20T04:45:06;37.70;;;28.00;;
38262;SDS011;24054;50.128;19.730;2022-11-20T04:47:33;39.63;;;28.85;;
38262;SDS011;24054;50.128;19.730;2022-11-20T04:50:00;41.95;;;28.13;;
38262;SDS011;24054;50.128;19.730;2022-11-20T04:52:27;35.42;;;27.30;;
38262;SDS011;24054;50.128;19.730;2022-11-20T04:54:54;39.15;;;28.08;;
38262;SDS011;24054;50.128;19.730;2022-11-20T04:57:21;36.50;;;27.63;;
38262;SDS011;24054;50.128;19.730;2022-11-20T04:59:49;40.00;;;28.50;;
38262;SDS011;24054;50.128;19.730;2022-11-20T05:02:16;37.60;;;27.58;;
38262;SDS011;24054;50.128;19.730;2022-11-20T05:04:43;37.78;;;27.42;;
38262;SDS011;24054;50.128;19.730;2022-11-20T05:07:10;39.03;;;27.05;;
38262;SDS011;24054;50.128;19.730;2022-11-20T05:09:37;37.38;;;26.63;;
38262;SDS011;24054;50.128;19.730;2022-11-20T05:12:06;39.28;;;27.77;;
38262;SDS011;24054;50.128;19.730;2022-11-20T05:14:33;41.58;;;28.73;;
38262;SDS011;24054;50.128;19.730;2022-11-20T05:17:02;36.00;;;26.83;;
38262;SDS011;24054;50.128;19.730;2022-11-20T05:19:29;35.95;;;26.70;;
38262;SDS011;24054;50.128;19.730;2022-11-20T05:21:56;39.50;;;28.13;;
38262;SDS011;24054;50.128;19.730;2022-11-20T05:24:23;37.30;;;26.65;;
38262;SDS011;24054;50.128;19.730;2022-11-20T05:26:50;37.22;;;27.33;;
38262;SDS011;24054;50.128;19.730;2022-11-20T05:29:17;40.85;;;27.92;;
38262;SDS011;24054;50.128;19.730;2022-11-20T05:31:44;37.22;;;27.52;;
38262;SDS011;24054;50.128;19.730;2022-11-20T05:34:12;38.15;;;27.75;;
38262;SDS011;24054;50.128;19.730;2022-11-20T05:36:39;37.40;;;27.13;;
38262;SDS011;24054;50.128;19.730;2022-11-20T05:39:07;39.65;;;27.00;;
38262;SDS011;24054;50.128;19.730;2022-11-20T05:41:34;40.38;;;27.35;;
38262;SDS011;24054;50.128;19.730;2022-11-20T05:44:01;34.78;;;26.17;;
38262;SDS011;24054;50.128;19.730;2022-11-20T05:46:28;36.88;;;26.67;;
38262;SDS011;24054;50.128;19.730;2022-11-20T05:48:56;39.08;;;26.17;;
38262;SDS011;24054;50.128;19.730;2022-11-20T05:51:25;38.75;;;26.77;;
38262;SDS011;24054;50.128;19.730;2022-11-20T05:53:52;39.88;;;28.30;;
38262;SDS011;24054;50.128;19.730;2022-11-20T05:56:20;37.40;;;26.92;;
38262;SDS011;24054;50.128;19.730;2022-11-20T05:58:48;37.30;;;27.30;;
38262;SDS011;24054;50.128;19.730;2022-11-20T06:01:19;38.85;;;27.83;;
38262;SDS011;24054;50.128;19.730;2022-11-20T06:03:47;36.20;;;26.88;;
38262;SDS011;24054;50.128;19.730;2022-11-20T06:06:15;41.73;;;28.47;;
38262;SDS011;24054;50.128;19.730;2022-11-20T06:08:44;41.20;;;28.02;;
38262;SDS011;24054;50.128;19.730;2022-11-20T06:13:39;37.83;;;26.15;;
38262;SDS011;24054;50.128;19.730;2022-11-20T06:16:07;38.28;;;26.63;;
38262;SDS011;24054;50.128;19.730;2022-11-20T06:18:34;39.47;;;27.23;;
38262;SDS011;24054;50.128;19.730;2022-11-20T06:21:02;36.78;;;25.88;;
38262;SDS011;24054;50.128;19.730;2022-11-20T06:23:31;38.25;;;25.90;;
38262;SDS011;24054;50.128;19.730;2022-11-20T06:26:02;40.83;;;27.15;;
38262;SDS011;24054;50.128;19.730;2022-11-20T06:28:30;36.83;;;26.25;;
38262;SDS011;24054;50.128;19.730;2022-11-20T06:30:57;37.22;;;25.90;;
38262;SDS011;24054;50.128;19.730;2022-11-20T06:33:24;36.95;;;25.17;;
38262;SDS011;24054;50.128;19.730;2022-11-20T06:35:51;36.67;;;25.27;;
38262;SDS011;24054;50.128;19.730;2022-11-20T06:38:24;37.13;;;27.35;;
38262;SDS011;24054;50.128;19.730;2022-11-20T06:40:51;37.92;;;25.65;;
38262;SDS011;24054;50.128;19.730;2022-11-20T06:43:19;35.97;;;25.02;;
38262;SDS011;24054;50.128;19.730;2022-11-20T06:45:51;33.47;;;25.00;;
38262;SDS011;24054;50.128;19.730;2022-11-20T06:48:18;36.38;;;25.05;;
38262;SDS011;24054;50.128;19.730;2022-11-20T06:50:45;34.60;;;25.08;;
38262;SDS011;24054;50.128;19.730;2022-11-20T06:53:12;34.10;;;24.67;;
38262;SDS011;24054;50.128;19.730;2022-11-20T06:55:41;34.80;;;25.10;;
38262;SDS011;24054;50.128;19.730;2022-11-20T06:58:08;35.70;;;25.92;;
38262;SDS011;24054;50.128;19.730;2022-11-20T07:00:37;36.20;;;24.50;;
38262;SDS011;24054;50.128;19.730;2022-11-20T07:03:04;34.22;;;24.60;;
38262;SDS011;24054;50.128;19.730;2022-11-20T07:05:31;30.58;;;23.63;;
38262;SDS011;24054;50.128;19.730;2022-11-20T07:07:59;32.35;;;24.30;;
38262;SDS011;24054;50.128;19.730;2022-11-20T07:10:26;33.97;;;24.55;;
38262;SDS011;24054;50.128;19.730;2022-11-20T07:12:53;34.13;;;25.60;;
38262;SDS011;24054;50.128;19.730;2022-11-20T07:15:21;30.70;;;23.00;;
38262;SDS011;24054;50.128;19.730;2022-11-20T07:17:51;31.70;;;24.40;;
38262;SDS011;24054;50.128;19.730;2022-11-20T07:20:18;34.10;;;24.90;;
38262;SDS011;24054;50.128;19.730;2022-11-20T07:22:45;33.58;;;24.23;;
38262;SDS011;24054;50.128;19.730;2022-11-20T07:25:12;34.95;;;23.83;;
38262;SDS011;24054;50.128;19.730;2022-11-20T07:27:39;34.47;;;24.63;;
38262;SDS011;24054;50.128;19.730;2022-11-20T07:30:06;31.75;;;23.33;;
38262;SDS011;24054;50.128;19.730;2022-11-20T07:32:34;32.95;;;24.20;;
38262;SDS011;24054;50.128;19.730;2022-11-20T07:35:02;39.03;;;25.25;;
38262;SDS011;24054;50.128;19.730;2022-11-20T07:39:56;30.60;;;23.27;;
38262;SDS011;24054;50.128;19.730;2022-11-20T07:42:23;31.30;;;23.80;;
38262;SDS011;24054;50.128;19.730;2022-11-20T07:44:50;32.50;;;23.30;;
38262;SDS011;24054;50.128;19.730;2022-11-20T07:47:18;33.80;;;23.67;;
38262;SDS011;24054;50.128;19.730;2022-11-20T07:49:45;32.55;;;23.63;;
38262;SDS011;24054;50.128;19.730;2022-11-20T07:52:13;33.33;;;24.13;;
38262;SDS011;24054;50.128;19.730;2022-11-20T07:54:40;35.45;;;24.10;;
38262;SDS011;24054;50.128;19.730;2022-11-20T07:57:07;34.85;;;23.70;;
38262;SDS011;24054;50.128;19.730;2022-11-20T07:59:34;31.50;;;23.17;;
38262;SDS011;24054;50.128;19.730;2022-11-20T08:02:02;31.15;;;22.70;;
38262;SDS011;24054;50.128;19.730;2022-11-20T08:04:28;31.85;;;23.55;;
38262;SDS011;24054;50.128;19.730;2022-11-20T08:06:57;31.17;;;23.08;;
38262;SDS011;24054;50.128;19.730;2022-11-20T08:09:25;29.75;;;22.38;;
38262;SDS011;24054;50.128;19.730;2022-11-20T08:11:53;30.42;;;22.65;;
38262;SDS011;24054;50.128;19.730;2022-11-20T08:14:40;33.80;;;23.25;;
38262;SDS011;24054;50.128;19.730;2022-11-20T08:17:08;30.50;;;22.73;;
38262;SDS011;24054;50.128;19.730;2022-11-20T08:19:38;30.40;;;22.42;;
38262;SDS011;24054;50.128;19.730;2022-11-20T08:22:05;31.85;;;23.17;;
38262;SDS011;24054;50.128;19.730;2022-11-20T08:24:33;32.65;;;23.38;;
38262;SDS011;24054;50.128;19.730;2022-11-20T08:27:00;32.40;;;23.95;;
38262;SDS011;24054;50.128;19.730;2022-11-20T08:29:27;38.47;;;24.38;;
38262;SDS011;24054;50.128;19.730;2022-11-20T08:31:55;34.50;;;23.58;;
38262;SDS011;24054;50.128;19.730;2022-11-20T08:34:22;36.38;;;23.20;;
38262;SDS011;24054;50.128;19.730;2022-11-20T08:36:49;32.47;;;23.55;;
38262;SDS011;24054;50.128;19.730;2022-11-20T08:39:16;34.38;;;23.52;;
38262;SDS011;24054;50.128;19.730;2022-11-20T08:41:44;32.47;;;23.15;;
38262;SDS011;24054;50.128;19.730;2022-11-20T08:46:39;31.67;;;22.40;;
38262;SDS011;24054;50.128;19.730;2022-11-20T08:49:09;36.22;;;23.52;;
38262;SDS011;24054;50.128;19.730;2022-11-20T08:51:38;31.98;;;22.60;;
38262;SDS011;24054;50.128;19.730;2022-11-20T08:54:05;34.20;;;22.60;;
38262;SDS011;24054;50.128;19.730;2022-11-20T08:56:33;32.00;;;21.63;;
38262;SDS011;24054;50.128;19.730;2022-11-20T08:59:02;31.52;;;22.20;;
38262;SDS011;24054;50.128;19.730;2022-11-20T09:01:29;32.92;;;22.70;;
38262;SDS011;24054;50.128;19.730;2022-11-20T09:03:56;33.72;;;22.13;;
38262;SDS011;24054;50.128;19.730;2022-11-20T09:06:24;30.85;;;21.85;;
38262;SDS011;24054;50.128;19.730;2022-11-20T09:08:52;36.07;;;22.33;;
38262;SDS011;24054;50.128;19.730;2022-11-20T09:11:20;31.52;;;21.90;;
38262;SDS011;24054;50.128;19.730;2022-11-20T09:13:47;33.63;;;22.10;;
38262;SDS011;24054;50.128;19.730;2022-11-20T09:16:16;32.30;;;21.52;;
38262;SDS011;24054;50.128;19.730;2022-11-20T09:18:43;30.95;;;21.17;;
38262;SDS011;24054;50.128;19.730;2022-11-20T09:21:10;31.38;;;21.85;;
38262;SDS011;24054;50.128;19.730;2022-11-20T09:23:39;29.85;;;21.25;;
38262;SDS011;24054;50.128;19.730;2022-11-20T09:26:07;31.98;;;22.48;;
38262;SDS011;24054;50.128;19.730;2022-11-20T09:28:36;29.85;;;21.58;;
38262;SDS011;24054;50.128;19.730;2022-11-20T09:31:04;27.10;;;20.60;;
38262;SDS011;24054;50.128;19.730;2022-11-20T09:33:33;31.00;;;21.15;;
38262;SDS011;24054;50.128;19.730;2022-11-20T09:36:01;30.95;;;21.52;;
38262;SDS011;24054;50.128;19.730;2022-11-20T09:38:28;30.73;;;21.58;;
38262;SDS011;24054;50.128;19.730;2022-11-20T09:40:56;30.77;;;21.02;;
38262;SDS011;24054;50.128;19.730;2022-11-20T09:43:27;31.27;;;21.35;;
38262;SDS011;24054;50.128;19.730;2022-11-20T09:46:08;29.40;;;20.88;;
38262;SDS011;24054;50.128;19.730;2022-11-20T09:48:51;27.95;;;20.83;;
38262;SDS011;24054;50.128;19.730;2022-11-20T09:51:30;26.75;;;20.00;;
38262;SDS011;24054;50.128;19.730;2022-11-20T09:54:10;27.13;;;20.95;;
38262;SDS011;24054;50.128;19.730;2022-11-20T09:56:44;28.75;;;20.25;;
38262;SDS011;24054;50.128;19.730;2022-11-20T09:59:18;30.20;;;20.67;;
38262;SDS011;24054;50.128;19.730;2022-11-20T10:01:58;27.23;;;20.50;;
38262;SDS011;24054;50.128;19.730;2022-11-20T10:04:28;27.70;;;20.33;;
38262;SDS011;24054;50.128;19.730;2022-11-20T10:07:00;29.73;;;20.15;;
38262;SDS011;24054;50.128;19.730;2022-11-20T10:09:32;30.98;;;21.08;;
38262;SDS011;24054;50.128;19.730;2022-11-20T10:12:09;28.92;;;20.42;;
38262;SDS011;24054;50.128;19.730;2022-11-20T10:14:50;28.65;;;20.27;;
38262;SDS011;24054;50.128;19.730;2022-11-20T10:17:36;32.80;;;20.98;;
38262;SDS011;24054;50.128;19.730;2022-11-20T10:20:20;28.67;;;19.83;;
38262;SDS011;24054;50.128;19.730;2022-11-20T10:23:06;26.03;;;19.33;;
38262;SDS011;24054;50.128;19.730;2022-11-20T10:25:47;26.20;;;20.27;;
38262;SDS011;24054;50.128;19.730;2022-11-20T10:28:28;30.55;;;20.85;;
38262;SDS011;24054;50.128;19.730;2022-11-20T10:31:08;30.88;;;21.70;;
38262;SDS011;24054;50.128;19.730;2022-11-20T10:33:38;31.30;;;20.08;;
38262;SDS011;24054;50.128;19.730;2022-11-20T10:36:12;31.95;;;20.52;;
38262;SDS011;24054;50.128;19.730;2022-11-20T10:38:44;27.67;;;19.55;;
38262;SDS011;24054;50.128;19.730;2022-11-20T10:41:20;27.55;;;19.17;;
38262;SDS011;24054;50.128;19.730;2022-11-20T10:43:51;29.55;;;20.15;;
38262;SDS011;24054;50.128;19.730;2022-11-20T10:46:23;24.95;;;18.58;;
38262;SDS011;24054;50.128;19.730;2022-11-20T10:48:51;29.13;;;19.63;;
38262;SDS011;24054;50.128;19.730;2022-11-20T10:51:25;32.70;;;20.63;;
38262;SDS011;24054;50.128;19.730;2022-11-20T10:54:03;29.58;;;20.48;;
38262;SDS011;24054;50.128;19.730;2022-11-20T10:56:40;28.55;;;19.48;;
38262;SDS011;24054;50.128;19.730;2022-11-20T10:59:19;27.90;;;18.42;;
38262;SDS011;24054;50.128;19.730;2022-11-20T11:02:14;30.13;;;19.65;;
38262;SDS011;24054;50.128;19.730;2022-11-20T11:04:43;26.63;;;18.67;;
38262;SDS011;24054;50.128;19.730;2022-11-20T11:07:15;26.80;;;18.65;;
38262;SDS011;24054;50.128;19.730;2022-11-20T11:09:44;27.73;;;19.02;;
38262;SDS011;24054;50.128;19.730;2022-11-20T11:12:14;26.33;;;18.67;;
38262;SDS011;24054;50.128;19.730;2022-11-20T11:14:44;23.15;;;17.20;;
38262;SDS011;24054;50.128;19.730;2022-11-20T11:17:26;27.52;;;18.40;;
38262;SDS011;24054;50.128;19.730;2022-11-20T11:20:06;28.63;;;18.13;;
38262;SDS011;24054;50.128;19.730;2022-11-20T11:22:46;27.30;;;18.63;;
38262;SDS011;24054;50.128;19.730;2022-11-20T11:25:22;26.00;;;18.50;;
38262;SDS011;24054;50.128;19.730;2022-11-20T11:27:56;28.48;;;18.55;;
38262;SDS011;24054;50.128;19.730;2022-11-20T11:30:25;23.50;;;17.40;;
38262;SDS011;24054;50.128;19.730;2022-11-20T11:33:04;22.55;;;17.00;;
38262;SDS011;24054;50.128;19.730;2022-11-20T11:35:33;27.03;;;19.47;;
38262;SDS011;24054;50.128;19.730;2022-11-20T11:38:06;25.45;;;17.58;;
38262;SDS011;24054;50.128;19.730;2022-11-20T11:40:41;24.88;;;17.92;;
38262;SDS011;24054;50.128;19.730;2022-11-20T11:43:16;27.30;;;18.40;;
38262;SDS011;24054;50.128;19.730;2022-11-20T11:45:59;23.55;;;17.35;;
38262;SDS011;24054;50.128;19.730;2022-11-20T11:48:27;22.52;;;18.08;;
38262;SDS011;24054;50.128;19.730;2022-11-20T11:50:54;23.17;;;17.52;;
38262;SDS011;24054;50.128;19.730;2022-11-20T11:53:23;28.00;;;19.42;;
38262;SDS011;24054;50.128;19.730;2022-11-20T11:55:54;28.65;;;19.40;;
38262;SDS011;24054;50.128;19.730;2022-11-20T11:58:33;27.70;;;19.45;;
38262;SDS011;24054;50.128;19.730;2022-11-20T12:01:10;27.23;;;19.02;;
38262;SDS011;24054;50.128;19.730;2022-11-20T12:03:51;27.15;;;19.00;;
38262;SDS011;24054;50.128;19.730;2022-11-20T12:06:25;27.75;;;19.35;;
38262;SDS011;24054;50.128;19.730;2022-11-20T12:08:59;27.85;;;19.83;;
38262;SDS011;24054;50.128;19.730;2022-11-20T12:11:31;29.63;;;19.58;;
38262;SDS011;24054;50.128;19.730;2022-11-20T12:14:07;25.77;;;19.38;;
38262;SDS011;24054;50.128;19.730;2022-11-20T12:16:39;25.02;;;18.90;;
38262;SDS011;24054;50.128;19.730;2022-11-20T12:19:08;24.30;;;18.35;;
38262;SDS011;24054;50.128;19.730;2022-11-20T12:21:41;23.95;;;18.35;;
38262;SDS011;24054;50.128;19.730;2022-11-20T12:24:30;25.20;;;18.90;;
38262;SDS011;24054;50.128;19.730;2022-11-20T12:27:21;26.70;;;18.65;;
38262;SDS011;24054;50.128;19.730;2022-11-20T12:30:10;25.70;;;19.52;;
38262;SDS011;24054;50.128;19.730;2022-11-20T12:32:51;27.63;;;20.73;;
38262;SDS011;24054;50.128;19.730;2022-11-20T12:35:42;29.65;;;20.15;;
38262;SDS011;24054;50.128;19.730;2022-11-20T12:41:31;24.65;;;19.33;;
38262;SDS011;24054;50.128;19.730;2022-11-20T12:44:33;24.77;;;18.92;;
38262;SDS011;24054;50.128;19.730;2022-11-20T12:47:28;25.55;;;20.02;;
38262;SDS011;24054;50.128;19.730;2022-11-20T12:50:08;37.17;;;25.60;;
38262;SDS011;24054;50.128;19.730;2022-11-20T12:52:47;40.75;;;28.95;;
38262;SDS011;24054;50.128;19.730;2022-11-20T12:55:21;42.80;;;31.98;;
38262;SDS011;24054;50.128;19.730;2022-11-20T12:57:57;33.80;;;25.25;;
38262;SDS011;24054;50.128;19.730;2022-11-20T13:00:29;35.75;;;25.73;;
38262;SDS011;24054;50.128;19.730;2022-11-20T13:05:59;35.42;;;24.50;;
38262;SDS011;24054;50.128;19.730;2022-11-20T13:08:32;27.92;;;23.42;;
38262;SDS011;24054;50.128;19.730;2022-11-20T13:11:03;33.45;;;22.63;;
38262;SDS011;24054;50.128;19.730;2022-11-20T13:13:42;28.52;;;21.15;;
38262;SDS011;24054;50.128;19.730;2022-11-20T13:16:18;32.47;;;21.48;;
38262;SDS011;24054;50.128;19.730;2022-11-20T13:18:51;27.92;;;20.80;;
38262;SDS011;24054;50.128;19.730;2022-11-20T13:21:20;29.48;;;21.40;;
38262;SDS011;24054;50.128;19.730;2022-11-20T13:23:49;24.63;;;19.95;;
38262;SDS011;24054;50.128;19.730;2022-11-20T13:26:18;27.20;;;19.58;;
38262;SDS011;24054;50.128;19.730;2022-11-20T13:28:59;24.95;;;19.42;;
38262;SDS011;24054;50.128;19.730;2022-11-20T13:31:31;26.95;;;20.50;;
38262;SDS011;24054;50.128;19.730;2022-11-20T13:34:01;24.63;;;20.17;;
38262;SDS011;24054;50.128;19.730;2022-11-20T13:36:32;27.35;;;20.05;;
38262;SDS011;24054;50.128;19.730;2022-11-20T13:39:01;34.08;;;19.30;;
38262;SDS011;24054;50.128;19.730;2022-11-20T13:41:30;28.67;;;19.48;;
38262;SDS011;24054;50.128;19.730;2022-11-20T13:44:12;25.90;;;19.63;;
38262;SDS011;24054;50.128;19.730;2022-11-20T13:46:42;23.65;;;18.35;;
38262;SDS011;24054;50.128;19.730;2022-11-20T13:49:16;22.60;;;17.70;;
38262;SDS011;24054;50.128;19.730;2022-11-20T13:51:54;21.83;;;17.67;;
38262;SDS011;24054;50.128;19.730;2022-11-20T13:54:49;21.98;;;17.92;;
38262;SDS011;24054;50.128;19.730;2022-11-20T13:57:38;23.55;;;19.02;;
38262;SDS011;24054;50.128;19.730;2022-11-20T14:00:25;25.05;;;19.17;;
38262;SDS011;24054;50.128;19.730;2022-11-20T14:02:58;22.95;;;18.17;;
38262;SDS011;24054;50.128;19.730;2022-11-20T14:05:34;23.00;;;18.10;;
38262;SDS011;24054;50.128;19.730;2022-11-20T14:08:05;24.58;;;18.58;;
38262;SDS011;24054;50.128;19.730;2022-11-20T14:10:40;21.67;;;17.63;;
38262;SDS011;24054;50.128;19.730;2022-11-20T14:13:10;22.13;;;18.02;;
38262;SDS011;24054;50.128;19.730;2022-11-20T14:15:43;27.73;;;18.38;;
38262;SDS011;24054;50.128;19.730;2022-11-20T14:18:11;26.55;;;18.33;;
38262;SDS011;24054;50.128;19.730;2022-11-20T14:20:40;24.77;;;19.17;;
38262;SDS011;24054;50.128;19.730;2022-11-20T14:23:09;23.48;;;18.63;;
38262;SDS011;24054;50.128;19.730;2022-11-20T14:28:10;23.35;;;18.67;;
38262;SDS011;24054;50.128;19.730;2022-11-20T14:30:47;23.77;;;17.63;;
38262;SDS011;24054;50.128;19.730;2022-11-20T14:33:15;23.05;;;18.20;;
38262;SDS011;24054;50.128;19.730;2022-11-20T14:35:45;22.45;;;17.10;;
38262;SDS011;24054;50.128;19.730;2022-11-20T14:38:15;24.75;;;17.80;;
38262;SDS011;24054;50.128;19.730;2022-11-20T14:40:45;27.13;;;20.77;;
38262;SDS011;24054;50.128;19.730;2022-11-20T14:43:16;24.65;;;20.25;;
38262;SDS011;24054;50.128;19.730;2022-11-20T14:45:51;29.27;;;20.38;;
38262;SDS011;24054;50.128;19.730;2022-11-20T14:48:23;31.35;;;20.48;;